Time;durP1;ratioP1;P1;durP2;ratioP2;P2;SDS_P1;SDS_P2;PMS_P1;PMS_P2;Temp;Humidity;BMP_temperature;BMP_pressure;BME280_temperature;BME280_humidity;BME280_pressure;Samples;Min_cycle;Max_cycle;Signal;HPM_P1;HPM_P2
2023/01/26 00:01:22;;;;;;;;;63.33;49.67;;;;;;;;5073718;28;8806;-81
2023/01/26 00:03:49;;;;;;;;;64.67;48.33;;;;;;;;5074761;28;8835;-80
2023/01/26 00:06:19;;;;;;;;;62.67;52.33;;;;;;;;5078268;28;8850;-80
2023/01/26 00:08:50;;;;;;;;;58.33;48.33;;;;;;;;5078906;28;8860;-80
2023/01/26 00:11:19;;;;;;;;;66.67;49.33;;;;;;;;5079222;28;8842;-81
2023/01/26 00:13:49;;;;;;;;;65.33;50.67;;;;;;;;5080636;28;8846;-80
2023/01/26 00:16:18;;;;;;;;;64.33;51.00;;;;;;;;5079188;28;8858;-81
2023/01/26 00:18:46;;;;;;;;;66.33;48.00;;;;;;;;5074049;28;8845;-81
2023/01/26 00:21:16;;;;;;;;;63.67;44.00;;;;;;;;5072417;28;8840;-81
2023/01/26 00:23:44;;;;;;;;;64.33;49.33;;;;;;;;5075828;28;8839;-81
2023/01/26 00:26:16;;;;;;;;;53.00;45.67;;;;;;;;5071195;28;8879;-81
2023/01/26 00:28:43;;;;;;;;;68.00;53.33;;;;;;;;5069513;28;8844;-81
2023/01/26 00:31:14;;;;;;;;;66.67;48.00;;;;;;;;5072609;28;8789;-81
2023/01/26 00:33:42;;;;;;;;;54.67;49.67;;;;;;;;5078134;28;8870;-81
2023/01/26 00:36:10;;;;;;;;;59.33;44.33;;;;;;;;5070782;28;9639;-80
2023/01/26 00:38:38;;;;;;;;;71.00;56.00;;;;;;;;5075924;28;8892;-80
2023/01/26 00:41:06;;;;;;;;;65.33;53.00;;;;;;;;5077593;28;8888;-81
2023/01/26 00:43:35;;;;;;;;;71.33;52.00;;;;;;;;5071311;28;8857;-81
2023/01/26 00:46:03;;;;;;;;;74.33;52.67;;;;;;;;5075319;28;8822;-81
2023/01/26 00:48:31;;;;;;;;;64.00;49.67;;;;;;;;5079585;28;8858;-80
2023/01/26 00:50:58;;;;;;;;;60.67;48.33;;;;;;;;5075613;28;8877;-81
2023/01/26 00:53:26;;;;;;;;;64.67;50.33;;;;;;;;5079162;28;8872;-81
2023/01/26 00:55:56;;;;;;;;;66.33;52.33;;;;;;;;5079097;28;8856;-80
2023/01/26 00:58:24;;;;;;;;;64.00;47.67;;;;;;;;5073143;28;8933;-82
2023/01/26 01:00:54;;;;;;;;;49.33;43.00;;;;;;;;5076328;28;8801;-81
2023/01/26 01:03:22;;;;;;;;;65.67;48.33;;;;;;;;5069773;28;8871;-81
2023/01/26 01:05:49;;;;;;;;;56.33;47.67;;;;;;;;5070744;28;8835;-82
2023/01/26 01:08:18;;;;;;;;;43.33;37.67;;;;;;;;5075671;28;8856;-81
2023/01/26 01:10:45;;;;;;;;;60.33;47.33;;;;;;;;5081009;28;8908;-81
2023/01/26 01:13:13;;;;;;;;;50.67;43.67;;;;;;;;5074439;28;8862;-80
2023/01/26 01:15:40;;;;;;;;;57.67;45.00;;;;;;;;5075068;28;8886;-80
2023/01/26 01:18:09;;;;;;;;;60.67;45.67;;;;;;;;5075656;28;8890;-80
2023/01/26 01:20:41;;;;;;;;;57.67;41.67;;;;;;;;5076571;28;8837;-80
2023/01/26 01:23:08;;;;;;;;;53.33;45.00;;;;;;;;5070729;28;8991;-80
2023/01/26 01:25:36;;;;;;;;;65.00;48.33;;;;;;;;5083830;28;8863;-80
2023/01/26 01:28:04;;;;;;;;;58.67;48.33;;;;;;;;5083019;28;8865;-80
2023/01/26 01:30:33;;;;;;;;;61.33;44.67;;;;;;;;5072585;28;8799;-80
2023/01/26 01:33:00;;;;;;;;;56.00;45.00;;;;;;;;5067197;28;8824;-80
2023/01/26 01:35:30;;;;;;;;;55.67;44.67;;;;;;;;5064915;28;8869;-79
2023/01/26 01:37:58;;;;;;;;;52.33;46.33;;;;;;;;5063169;28;8824;-80
2023/01/26 01:40:25;;;;;;;;;53.67;45.00;;;;;;;;5057703;28;8894;-80
2023/01/26 01:42:53;;;;;;;;;61.00;49.67;;;;;;;;5066206;28;8863;-79
2023/01/26 01:45:41;;;;;;;;;60.67;47.33;;;;;;;;5064267;28;8837;-79
2023/01/26 01:48:24;;;;;;;;;60.67;46.33;;;;;;;;5066960;28;8833;-79
2023/01/26 01:50:56;;;;;;;;;66.00;52.67;;;;;;;;5064735;28;8848;-79
2023/01/26 01:53:28;;;;;;;;;61.67;43.67;;;;;;;;5067436;28;8850;-79
2023/01/26 01:55:59;;;;;;;;;67.67;49.00;;;;;;;;5063264;28;9713;-79
2023/01/26 01:58:28;;;;;;;;;62.33;45.33;;;;;;;;5071033;28;8986;-78
2023/01/26 02:00:57;;;;;;;;;55.33;44.67;;;;;;;;5063440;28;8801;-79
2023/01/26 02:03:26;;;;;;;;;70.00;50.67;;;;;;;;5062782;28;8824;-79
2023/01/26 02:06:00;;;;;;;;;56.67;45.33;;;;;;;;5059645;28;8836;-80
2023/01/26 02:08:31;;;;;;;;;52.67;43.33;;;;;;;;5061724;28;8895;-79
2023/01/26 02:11:01;;;;;;;;;51.67;42.00;;;;;;;;5060923;28;8832;-79
2023/01/26 02:13:30;;;;;;;;;63.00;42.33;;;;;;;;5065003;28;9678;-79
2023/01/26 02:15:59;;;;;;;;;66.00;49.33;;;;;;;;5061958;28;8855;-79
2023/01/26 02:18:27;;;;;;;;;59.33;46.00;;;;;;;;5060923;28;8875;-80
2023/01/26 02:20:59;;;;;;;;;51.67;44.00;;;;;;;;5060134;28;8856;-80
2023/01/26 02:23:47;;;;;;;;;49.67;42.00;;;;;;;;5062131;28;8884;-79
2023/01/26 02:26:19;;;;;;;;;42.33;37.33;;;;;;;;5062168;28;8925;-80
2023/01/26 02:28:47;;;;;;;;;60.67;45.33;;;;;;;;5063217;28;8848;-79
2023/01/26 02:31:16;;;;;;;;;57.33;46.67;;;;;;;;5061427;28;8782;-79
2023/01/26 02:33:44;;;;;;;;;49.67;38.33;;;;;;;;5069591;28;8842;-79
2023/01/26 02:36:18;;;;;;;;;57.67;46.33;;;;;;;;5071488;28;8885;-79
2023/01/26 02:38:52;;;;;;;;;61.67;48.00;;;;;;;;5063753;28;8852;-80
2023/01/26 02:44:02;;;;;;;;;49.00;42.00;;;;;;;;5066170;28;8849;-80
2023/01/26 02:46:30;;;;;;;;;55.00;46.33;;;;;;;;5066092;28;8856;-80
2023/01/26 02:51:42;;;;;;;;;56.00;45.00;;;;;;;;5065792;28;8830;-80
2023/01/26 02:55:21;;;;;;;;;57.67;46.67;;;;;;;;5065308;28;8865;-79
2023/01/26 02:56:58;;;;;;;;;60.00;45.33;;;;;;;;5066284;28;8853;-79
2023/01/26 02:59:25;;;;;;;;;45.33;41.67;;;;;;;;5064502;28;8828;-80
2023/01/26 03:01:54;;;;;;;;;58.67;44.00;;;;;;;;5062730;28;8768;-80
2023/01/26 03:04:21;;;;;;;;;50.33;41.33;;;;;;;;5065766;28;8896;-80
2023/01/26 03:06:48;;;;;;;;;59.67;48.33;;;;;;;;5066547;28;8858;-81
2023/01/26 03:09:17;;;;;;;;;46.33;31.00;;;;;;;;5063440;28;8845;-80
2023/01/26 03:11:45;;;;;;;;;46.00;40.00;;;;;;;;5065675;28;8856;-80
2023/01/26 03:14:15;;;;;;;;;55.67;45.00;;;;;;;;5060161;28;8856;-80
2023/01/26 03:16:43;;;;;;;;;67.33;50.67;;;;;;;;5066259;28;8865;-79
2023/01/26 03:27:49;;;;;;;;;61.67;43.33;;;;;;;;5029000;28;9723;-79
2023/01/26 03:30:20;;;;;;;;;60.67;43.67;;;;;;;;5070346;28;8876;-80
2023/01/26 03:32:47;;;;;;;;;40.33;35.33;;;;;;;;5064990;28;8876;-80
2023/01/26 03:35:21;;;;;;;;;52.33;38.67;;;;;;;;5064753;28;8857;-80
2023/01/26 03:37:53;;;;;;;;;68.00;46.33;;;;;;;;5068708;28;8844;-79
2023/01/26 03:56:54;;;;;;;;;41.67;34.67;;;;;;;;5063310;28;8821;-81
2023/01/26 03:59:36;;;;;;;;;44.00;36.33;;;;;;;;5066102;28;8852;-80
2023/01/26 04:10:23;;;;;;;;;43.00;35.67;;;;;;;;5055835;28;8836;-81
2023/01/26 04:23:55;;;;;;;;;46.00;36.33;;;;;;;;5060342;28;8844;-80
2023/01/26 04:26:23;;;;;;;;;45.00;32.67;;;;;;;;5059729;28;8863;-80
2023/01/26 04:28:51;;;;;;;;;54.33;38.67;;;;;;;;5061205;28;8879;-80
2023/01/26 04:31:19;;;;;;;;;44.00;34.00;;;;;;;;5066007;28;8798;-81
2023/01/26 04:33:48;;;;;;;;;41.33;37.67;;;;;;;;5074909;28;8856;-80
2023/01/26 04:36:16;;;;;;;;;54.00;42.00;;;;;;;;5078791;28;8869;-80
2023/01/26 04:38:43;;;;;;;;;40.33;33.67;;;;;;;;5077124;28;8846;-80
2023/01/26 04:41:11;;;;;;;;;50.67;40.00;;;;;;;;5076008;28;8858;-80
2023/01/26 04:43:38;;;;;;;;;41.67;32.67;;;;;;;;5067358;28;8883;-81
2023/01/26 04:46:08;;;;;;;;;40.67;37.33;;;;;;;;5072421;28;9691;-80
2023/01/26 04:48:36;;;;;;;;;54.00;45.00;;;;;;;;5071736;28;8834;-80
2023/01/26 04:51:07;;;;;;;;;55.33;43.33;;;;;;;;5075910;28;8832;-81
2023/01/26 04:53:35;;;;;;;;;54.33;41.67;;;;;;;;5077424;28;8846;-82
2023/01/26 04:56:03;;;;;;;;;52.00;42.33;;;;;;;;5079297;28;8892;-81
2023/01/26 04:58:31;;;;;;;;;49.67;37.67;;;;;;;;5060815;28;8852;-82
2023/01/26 05:00:59;;;;;;;;;39.67;32.33;;;;;;;;5076372;28;8932;-81
2023/01/26 05:03:27;;;;;;;;;46.67;37.67;;;;;;;;5078961;28;8863;-81
2023/01/26 05:05:55;;;;;;;;;47.00;32.67;;;;;;;;5078324;28;8867;-82
2023/01/26 05:08:24;;;;;;;;;42.67;33.33;;;;;;;;5078509;28;8872;-81
2023/01/26 05:10:52;;;;;;;;;43.33;33.00;;;;;;;;5082279;28;8846;-81
2023/01/26 05:13:20;;;;;;;;;44.33;32.67;;;;;;;;5078501;28;8838;-80
2023/01/26 05:15:48;;;;;;;;;51.00;36.33;;;;;;;;5077570;28;8892;-81
2023/01/26 05:18:16;;;;;;;;;53.33;39.00;;;;;;;;5074883;28;8848;-82
2023/01/26 05:20:43;;;;;;;;;43.67;35.00;;;;;;;;5079170;28;8876;-81
2023/01/26 05:23:11;;;;;;;;;41.00;36.33;;;;;;;;5075918;28;8870;-81
2023/01/26 05:25:40;;;;;;;;;37.00;35.00;;;;;;;;5078155;28;8884;-81
2023/01/26 05:28:08;;;;;;;;;46.00;39.33;;;;;;;;5082614;28;8865;-80
2023/01/26 05:30:36;;;;;;;;;31.33;27.33;;;;;;;;5080664;28;8774;-80
2023/01/26 05:33:05;;;;;;;;;47.33;36.67;;;;;;;;5078678;28;9702;-80
2023/01/26 05:35:33;;;;;;;;;41.67;37.00;;;;;;;;5086002;28;8870;-80
2023/01/26 05:38:00;;;;;;;;;37.67;37.67;;;;;;;;5084817;28;8873;-79
2023/01/26 05:40:28;;;;;;;;;47.33;37.67;;;;;;;;5087548;28;8904;-79
2023/01/26 05:42:57;;;;;;;;;60.00;43.33;;;;;;;;5079868;28;8987;-80
2023/01/26 05:45:25;;;;;;;;;46.33;40.33;;;;;;;;5079719;28;8962;-80
2023/01/26 05:47:52;;;;;;;;;42.00;35.00;;;;;;;;5079079;28;8851;-79
2023/01/26 05:50:20;;;;;;;;;47.00;38.67;;;;;;;;5078638;28;8863;-80
2023/01/26 05:52:48;;;;;;;;;63.33;44.33;;;;;;;;5079913;28;8825;-80
2023/01/26 05:55:17;;;;;;;;;50.00;39.00;;;;;;;;5077923;28;9045;-79
2023/01/26 05:57:44;;;;;;;;;42.00;38.00;;;;;;;;5078311;28;8844;-80
2023/01/26 06:00:15;;;;;;;;;50.67;42.00;;;;;;;;5080653;28;8846;-80
2023/01/26 06:02:42;;;;;;;;;43.67;40.00;;;;;;;;5074184;28;8876;-80
2023/01/26 06:05:11;;;;;;;;;52.33;40.67;;;;;;;;5105491;27;8921;-80
2023/01/26 06:07:39;;;;;;;;;45.33;39.33;;;;;;;;5060386;28;8842;-79
2023/01/26 06:10:10;;;;;;;;;52.33;38.67;;;;;;;;5075825;28;8854;-80
2023/01/26 06:12:38;;;;;;;;;34.00;29.67;;;;;;;;5077288;28;8865;-80
2023/01/26 06:15:06;;;;;;;;;44.00;40.00;;;;;;;;5074839;28;8961;-79
2023/01/26 06:17:36;;;;;;;;;36.33;33.67;;;;;;;;5079853;28;8834;-80
2023/01/26 06:20:05;;;;;;;;;43.67;36.00;;;;;;;;5079275;28;8849;-80
2023/01/26 06:22:33;;;;;;;;;39.33;34.00;;;;;;;;5078258;28;8868;-79
2023/01/26 06:25:01;;;;;;;;;59.00;39.67;;;;;;;;5080201;28;9660;-80
2023/01/26 06:27:28;;;;;;;;;56.67;45.00;;;;;;;;5075953;28;8849;-79
2023/01/26 06:29:57;;;;;;;;;67.67;52.00;;;;;;;;5076694;28;8937;-79
2023/01/26 06:32:26;;;;;;;;;51.00;41.00;;;;;;;;5080890;28;8806;-79
2023/01/26 06:34:56;;;;;;;;;53.00;43.00;;;;;;;;5078339;28;8877;-79
2023/01/26 06:37:23;;;;;;;;;50.00;42.67;;;;;;;;5076977;28;8864;-79
2023/01/26 06:39:51;;;;;;;;;51.67;44.33;;;;;;;;5075068;28;9342;-80
2023/01/26 06:42:19;;;;;;;;;56.67;45.00;;;;;;;;5072947;28;8833;-79
2023/01/26 06:44:47;;;;;;;;;49.33;40.00;;;;;;;;5073104;28;8842;-79
2023/01/26 06:47:15;;;;;;;;;43.33;38.67;;;;;;;;5078565;28;8870;-80
2023/01/26 06:49:42;;;;;;;;;60.67;47.00;;;;;;;;5073163;28;8859;-79
2023/01/26 06:52:26;;;;;;;;;63.67;48.33;;;;;;;;5074606;28;8858;-81
2023/01/26 06:54:54;;;;;;;;;64.33;51.33;;;;;;;;5072571;28;8937;-81
2023/01/26 06:57:22;;;;;;;;;53.00;39.33;;;;;;;;5075059;28;8876;-72
2023/01/26 06:59:49;;;;;;;;;42.00;34.00;;;;;;;;5112231;27;8826;-71
2023/01/26 07:02:21;;;;;;;;;33.00;33.00;;;;;;;;5081358;28;8857;-73
2023/01/26 07:04:49;;;;;;;;;45.67;38.00;;;;;;;;5074915;28;8801;-72
2023/01/26 07:07:17;;;;;;;;;41.00;39.33;;;;;;;;5073717;28;8868;-72
2023/01/26 07:09:45;;;;;;;;;38.33;38.33;;;;;;;;5070716;28;8860;-72
2023/01/26 07:12:13;;;;;;;;;41.33;37.67;;;;;;;;5076205;28;8867;-73
2023/01/26 07:14:40;;;;;;;;;38.67;38.00;;;;;;;;5077049;28;8814;-73
2023/01/26 07:17:07;;;;;;;;;54.00;43.00;;;;;;;;5075075;28;8862;-72
2023/01/26 07:19:36;;;;;;;;;56.67;43.00;;;;;;;;5077469;28;8850;-72
2023/01/26 07:22:03;;;;;;;;;45.00;37.67;;;;;;;;5077126;28;8872;-71
2023/01/26 07:24:31;;;;;;;;;24.67;21.33;;;;;;;;5076835;28;8922;-73
2023/01/26 07:27:00;;;;;;;;;57.67;35.67;;;;;;;;5077307;28;8856;-73
2023/01/26 07:29:28;;;;;;;;;52.00;40.00;;;;;;;;5077904;28;8865;-72
2023/01/26 07:31:55;;;;;;;;;31.67;30.00;;;;;;;;5077222;28;8767;-72
2023/01/26 07:34:23;;;;;;;;;50.00;32.33;;;;;;;;5108981;27;8838;-72
2023/01/26 07:36:52;;;;;;;;;38.33;32.00;;;;;;;;5079024;28;9196;-71
2023/01/26 07:39:19;;;;;;;;;39.67;36.33;;;;;;;;5079303;28;9030;-72
2023/01/26 07:41:47;;;;;;;;;32.33;32.33;;;;;;;;5074657;28;8972;-72
2023/01/26 07:44:16;;;;;;;;;45.33;34.67;;;;;;;;5075808;28;9310;-74
2023/01/26 07:46:44;;;;;;;;;24.00;21.00;;;;;;;;5075064;28;8829;-73
2023/01/26 07:49:11;;;;;;;;;43.33;33.33;;;;;;;;5073285;28;8869;-73
2023/01/26 07:51:39;;;;;;;;;36.00;31.33;;;;;;;;5076495;28;8930;-77
2023/01/26 07:54:07;;;;;;;;;40.33;36.33;;;;;;;;5074473;28;8865;-75
2023/01/26 07:56:35;;;;;;;;;42.33;31.33;;;;;;;;5077470;28;8870;-73
2023/01/26 07:59:02;;;;;;;;;46.33;40.00;;;;;;;;5073766;28;8881;-71
2023/01/26 08:01:32;;;;;;;;;37.00;37.00;;;;;;;;5073016;28;8766;-71
2023/01/26 08:04:00;;;;;;;;;40.67;36.67;;;;;;;;5074294;28;8856;-72
2023/01/26 08:06:27;;;;;;;;;40.33;32.00;;;;;;;;5074750;28;8850;-72
2023/01/26 08:08:55;;;;;;;;;40.67;32.67;;;;;;;;5073744;28;8846;-72
2023/01/26 08:11:24;;;;;;;;;42.00;36.67;;;;;;;;5076399;28;8842;-72
2023/01/26 08:13:52;;;;;;;;;54.67;38.00;;;;;;;;5074568;28;8884;-72
2023/01/26 08:16:19;;;;;;;;;42.67;38.33;;;;;;;;5074115;28;9002;-71
2023/01/26 08:18:49;;;;;;;;;39.00;31.67;;;;;;;;5076376;28;8842;-72
2023/01/26 08:21:17;;;;;;;;;57.67;41.00;;;;;;;;5075370;28;8858;-72
2023/01/26 08:23:49;;;;;;;;;40.00;29.33;;;;;;;;5077512;28;8850;-71
2023/01/26 08:26:17;;;;;;;;;52.33;40.00;;;;;;;;5064056;28;11535;-72
2023/01/26 08:28:45;;;;;;;;;41.67;35.00;;;;;;;;5073258;28;8883;-71
2023/01/26 08:31:17;;;;;;;;;49.33;36.33;;;;;;;;5072385;28;8816;-72
2023/01/26 08:33:45;;;;;;;;;36.00;31.00;;;;;;;;5074278;28;8875;-70
2023/01/26 08:36:15;;;;;;;;;43.33;40.67;;;;;;;;5076872;28;11577;-71
2023/01/26 08:38:43;;;;;;;;;42.33;35.33;;;;;;;;5075476;28;11590;-71
2023/01/26 08:41:10;;;;;;;;;38.33;34.33;;;;;;;;5068193;28;11568;-72
2023/01/26 08:43:38;;;;;;;;;45.33;33.33;;;;;;;;5072874;28;12505;-71
2023/01/26 08:46:07;;;;;;;;;38.33;32.67;;;;;;;;5077595;28;11590;-71
2023/01/26 08:48:34;;;;;;;;;39.00;36.00;;;;;;;;5073780;28;11600;-71
2023/01/26 08:51:03;;;;;;;;;47.33;35.67;;;;;;;;5075386;28;11640;-71
2023/01/26 08:53:34;;;;;;;;;34.00;32.00;;;;;;;;5073822;28;11597;-71
2023/01/26 08:56:02;;;;;;;;;42.67;35.33;;;;;;;;5072030;28;8898;-71
2023/01/26 08:58:30;;;;;;;;;48.00;37.67;;;;;;;;5070369;28;12318;-70
2023/01/26 09:00:57;;;;;;;;;45.67;32.67;;;;;;;;5068173;28;11650;-71
2023/01/26 09:03:24;;;;;;;;;34.67;30.00;;;;;;;;5073554;28;11565;-70
2023/01/26 09:05:52;;;;;;;;;45.33;33.33;;;;;;;;5070977;28;11542;-71
2023/01/26 09:08:20;;;;;;;;;51.00;42.33;;;;;;;;5072059;28;8847;-75
2023/01/26 09:10:49;;;;;;;;;44.33;34.00;;;;;;;;5073702;28;8857;-73
2023/01/26 09:13:16;;;;;;;;;45.00;35.33;;;;;;;;5074842;28;8948;-71
2023/01/26 09:15:43;;;;;;;;;48.00;39.67;;;;;;;;5075478;28;8879;-71
2023/01/26 09:18:12;;;;;;;;;46.67;38.00;;;;;;;;5074566;28;8854;-71
2023/01/26 09:20:39;;;;;;;;;44.00;35.67;;;;;;;;5074355;28;11646;-71
2023/01/26 09:23:07;;;;;;;;;43.67;33.00;;;;;;;;5076924;28;8886;-71
2023/01/26 09:25:37;;;;;;;;;30.67;29.33;;;;;;;;5071808;28;11567;-71
2023/01/26 09:28:06;;;;;;;;;41.33;34.33;;;;;;;;5074490;28;11567;-71
2023/01/26 09:30:34;;;;;;;;;36.67;34.00;;;;;;;;5075336;28;11550;-71
2023/01/26 09:33:03;;;;;;;;;37.33;31.00;;;;;;;;5069287;28;12419;-72
2023/01/26 09:35:31;;;;;;;;;37.33;23.67;;;;;;;;5072916;28;8859;-72
2023/01/26 09:37:58;;;;;;;;;31.00;29.00;;;;;;;;5072028;28;11686;-72
2023/01/26 09:40:36;;;;;;;;;37.33;29.67;;;;;;;;5077076;28;11595;-72
2023/01/26 09:43:16;;;;;;;;;39.67;32.00;;;;;;;;5076850;28;11600;-72
2023/01/26 09:45:49;;;;;;;;;37.00;33.67;;;;;;;;5078684;28;11558;-71
2023/01/26 09:48:24;;;;;;;;;24.00;20.67;;;;;;;;5078619;28;11588;-71
2023/01/26 09:50:56;;;;;;;;;31.75;25.00;;;;;;;;5079737;28;12478;-72
2023/01/26 09:53:27;;;;;;;;;27.00;24.33;;;;;;;;5075278;28;11618;-72
2023/01/26 09:55:56;;;;;;;;;22.75;17.75;;;;;;;;5078947;28;11558;-72
2023/01/26 09:58:35;;;;;;;;;33.00;30.00;;;;;;;;5077061;28;12388;-72
2023/01/26 10:01:04;;;;;;;;;31.00;26.25;;;;;;;;5074884;28;12349;-72
2023/01/26 10:03:36;;;;;;;;;26.00;21.50;;;;;;;;5080081;28;11544;-72
2023/01/26 10:06:12;;;;;;;;;24.00;21.25;;;;;;;;5074272;28;11589;-71
2023/01/26 10:08:40;;;;;;;;;34.75;29.75;;;;;;;;5080676;28;11536;-71
2023/01/26 10:11:15;;;;;;;;;22.67;18.00;;;;;;;;5079773;28;11561;-72
2023/01/26 10:13:48;;;;;;;;;39.00;29.00;;;;;;;;5078380;28;11570;-72
2023/01/26 10:16:16;;;;;;;;;35.33;34.33;;;;;;;;5072901;28;11580;-72
2023/01/26 10:18:51;;;;;;;;;32.25;23.00;;;;;;;;5073697;28;11574;-72
2023/01/26 10:21:22;;;;;;;;;30.00;27.25;;;;;;;;5078370;28;11609;-72
2023/01/26 10:23:50;;;;;;;;;41.67;32.33;;;;;;;;5077501;28;11566;-71
2023/01/26 10:26:19;;;;;;;;;33.00;29.67;;;;;;;;5072695;28;12066;-71
2023/01/26 10:28:50;;;;;;;;;32.67;28.67;;;;;;;;5075863;28;11582;-72
2023/01/26 10:31:20;;;;;;;;;36.67;29.33;;;;;;;;5081152;28;11537;-71
2023/01/26 10:33:53;;;;;;;;;35.33;29.33;;;;;;;;5075164;28;11604;-71
2023/01/26 10:36:20;;;;;;;;;34.25;30.50;;;;;;;;5079837;28;12332;-72
2023/01/26 10:38:48;;;;;;;;;30.33;29.00;;;;;;;;5074374;28;11603;-72
2023/01/26 10:41:27;;;;;;;;;34.67;33.33;;;;;;;;5073156;28;11683;-72
2023/01/26 10:43:58;;;;;;;;;41.33;32.67;;;;;;;;5077518;28;11523;-73
2023/01/26 10:46:32;;;;;;;;;37.75;37.00;;;;;;;;5077735;28;11543;-72
2023/01/26 10:49:01;;;;;;;;;42.00;31.67;;;;;;;;5080232;28;11560;-71
2023/01/26 10:51:31;;;;;;;;;48.67;36.67;;;;;;;;5077338;28;11584;-72
2023/01/26 10:54:21;;;;;;;;;51.33;40.33;;;;;;;;5072117;28;11567;-72
2023/01/26 10:56:53;;;;;;;;;37.00;31.25;;;;;;;;5077371;28;12387;-71
2023/01/26 10:59:32;;;;;;;;;27.75;23.50;;;;;;;;5077261;28;11507;-71
2023/01/26 11:02:01;;;;;;;;;34.25;30.25;;;;;;;;5074010;28;11470;-72
2023/01/26 11:04:30;;;;;;;;;38.75;32.75;;;;;;;;5077699;28;11557;-71
2023/01/26 11:07:23;;;;;;;;;34.50;29.25;;;;;;;;5077876;28;11618;-73
2023/01/26 11:09:51;;;;;;;;;35.75;32.25;;;;;;;;5078233;28;11621;-73
2023/01/26 11:12:19;;;;;;;;;43.75;38.25;;;;;;;;5074883;28;11720;-72
2023/01/26 11:15:02;;;;;;;;;32.50;26.00;;;;;;;;5077246;28;12296;-73
2023/01/26 11:17:34;;;;;;;;;37.00;33.00;;;;;;;;5076009;28;11562;-74
2023/01/26 11:20:07;;;;;;;;;29.75;25.50;;;;;;;;5074855;28;11673;-72
2023/01/26 11:22:42;;;;;;;;;29.00;22.75;;;;;;;;5076132;28;11685;-71
2023/01/26 11:25:18;;;;;;;;;32.75;25.25;;;;;;;;5054752;28;12340;-70
2023/01/26 11:27:52;;;;;;;;;16.50;14.75;;;;;;;;5078878;28;11582;-71
2023/01/26 11:30:44;;;;;;;;;26.25;24.50;;;;;;;;5071749;28;11539;-70
2023/01/26 11:33:18;;;;;;;;;33.25;32.00;;;;;;;;5073250;28;11572;-71
2023/01/26 11:35:52;;;;;;;;;40.50;31.00;;;;;;;;5075213;28;11588;-71
2023/01/26 11:38:33;;;;;;;;;40.00;32.50;;;;;;;;5072380;28;11561;-72
2023/01/26 11:41:12;;;;;;;;;38.50;32.00;;;;;;;;5078775;28;12343;-72
2023/01/26 11:44:17;;;;;;;;;33.50;29.00;;;;;;;;5091121;28;11592;-71
2023/01/26 11:47:09;;;;;;;;;31.25;27.75;;;;;;;;5073422;27;11591;-71
2023/01/26 11:49:51;;;;;;;;;40.00;31.75;;;;;;;;5052085;28;11556;-72
2023/01/26 11:52:26;;;;;;;;;30.25;26.25;;;;;;;;5076217;28;11729;-72
2023/01/26 11:55:14;;;;;;;;;37.00;28.75;;;;;;;;5076302;28;11623;-72
2023/01/26 11:57:49;;;;;;;;;33.00;29.75;;;;;;;;5075802;28;11573;-72
2023/01/26 12:00:19;;;;;;;;;36.00;27.00;;;;;;;;5072390;28;11568;-74
2023/01/26 12:02:51;;;;;;;;;22.50;21.75;;;;;;;;5077676;28;12386;-73
2023/01/26 12:05:22;;;;;;;;;23.75;22.75;;;;;;;;5069145;28;11633;-72
2023/01/26 12:07:54;;;;;;;;;25.00;22.50;;;;;;;;5079572;28;11558;-72
2023/01/26 12:10:26;;;;;;;;;24.75;23.75;;;;;;;;5076845;28;11674;-71
2023/01/26 12:12:58;;;;;;;;;28.50;27.75;;;;;;;;5075932;28;11545;-72
2023/01/26 12:15:29;;;;;;;;;25.25;24.25;;;;;;;;5073942;28;11574;-72
2023/01/26 12:18:04;;;;;;;;;26.00;22.75;;;;;;;;5077585;28;11549;-72
2023/01/26 12:20:39;;;;;;;;;23.75;20.50;;;;;;;;5072782;28;11562;-71
2023/01/26 12:23:12;;;;;;;;;25.00;21.00;;;;;;;;5074519;28;11539;-71
2023/01/26 12:25:44;;;;;;;;;30.00;27.50;;;;;;;;5076764;28;13007;-70
2023/01/26 12:28:20;;;;;;;;;30.75;30.00;;;;;;;;5073227;28;11526;-72
2023/01/26 12:30:53;;;;;;;;;38.25;37.00;;;;;;;;5076893;28;11521;-73
2023/01/26 12:33:23;;;;;;;;;35.25;33.50;;;;;;;;5079277;28;11678;-72
2023/01/26 12:36:00;;;;;;;;;39.25;35.00;;;;;;;;5074823;28;11593;-72
2023/01/26 12:38:39;;;;;;;;;29.25;28.25;;;;;;;;5078450;28;11578;-73
2023/01/26 12:41:11;;;;;;;;;33.75;33.75;;;;;;;;5071936;28;11586;-71
2023/01/26 12:43:53;;;;;;;;;20.50;17.25;;;;;;;;5079675;28;11721;-71
2023/01/26 12:46:21;;;;;;;;;37.50;29.50;;;;;;;;5072186;28;11549;-71
2023/01/26 12:48:55;;;;;;;;;23.50;21.00;;;;;;;;5076533;28;11554;-73
2023/01/26 12:51:26;;;;;;;;;31.00;25.50;;;;;;;;5071789;28;11770;-71
2023/01/26 12:53:58;;;;;;;;;29.25;26.25;;;;;;;;5076118;28;12217;-70
2023/01/26 12:56:31;;;;;;;;;40.00;32.00;;;;;;;;5078576;28;11520;-70
2023/01/26 12:58:59;;;;;;;;;26.75;22.50;;;;;;;;5077544;28;11557;-71
2023/01/26 13:01:36;;;;;;;;;29.25;29.25;;;;;;;;5076660;28;11530;-71
2023/01/26 13:04:09;;;;;;;;;31.00;23.25;;;;;;;;5076817;28;11545;-71
2023/01/26 13:06:36;;;;;;;;;26.25;20.50;;;;;;;;5078989;28;11556;-71
2023/01/26 13:09:18;;;;;;;;;25.75;19.75;;;;;;;;5077354;28;11564;-71
2023/01/26 13:11:51;;;;;;;;;20.50;17.75;;;;;;;;5075833;28;11591;-71
2023/01/26 13:14:31;;;;;;;;;22.25;20.00;;;;;;;;5076694;28;12397;-71
2023/01/26 13:17:37;;;;;;;;;23.50;23.50;;;;;;;;5079700;28;12361;-71
2023/01/26 13:20:26;;;;;;;;;12.50;9.50;;;;;;;;5075744;28;11555;-72
2023/01/26 13:22:55;;;;;;;;;19.50;16.00;;;;;;;;5072043;28;11519;-71
2023/01/26 13:25:31;;;;;;;;;16.00;14.25;;;;;;;;5074772;28;11527;-71
2023/01/26 13:27:59;;;;;;;;;17.75;17.50;;;;;;;;5071029;28;11537;-71
2023/01/26 13:30:40;;;;;;;;;25.25;20.00;;;;;;;;5076852;28;11532;-71
2023/01/26 13:33:14;;;;;;;;;19.50;19.50;;;;;;;;5077152;28;11714;-71
2023/01/26 13:35:45;;;;;;;;;17.75;17.75;;;;;;;;5076951;28;11667;-71
2023/01/26 13:38:18;;;;;;;;;23.25;22.50;;;;;;;;5073192;28;11555;-71
2023/01/26 13:40:48;;;;;;;;;21.50;19.25;;;;;;;;5075063;28;11584;-71
2023/01/26 13:43:20;;;;;;;;;20.75;18.75;;;;;;;;5075219;28;11740;-71
2023/01/26 13:45:56;;;;;;;;;17.00;15.50;;;;;;;;5074489;28;11578;-72
2023/01/26 13:48:33;;;;;;;;;25.75;18.00;;;;;;;;5072003;28;11569;-72
2023/01/26 13:51:03;;;;;;;;;20.50;20.50;;;;;;;;5078947;28;11563;-71
2023/01/26 13:53:35;;;;;;;;;26.00;26.00;;;;;;;;5076412;28;11544;-71
2023/01/26 13:56:04;;;;;;;;;21.25;21.25;;;;;;;;5074411;28;11576;-71
2023/01/26 13:58:31;;;;;;;;;24.00;21.75;;;;;;;;5072187;28;11757;-71
2023/01/26 14:01:00;;;;;;;;;21.25;21.25;;;;;;;;5076913;28;11550;-71
2023/01/26 14:03:29;;;;;;;;;21.50;19.50;;;;;;;;5074901;28;11569;-72
2023/01/26 14:05:59;;;;;;;;;26.00;24.50;;;;;;;;5076340;28;11572;-70
2023/01/26 14:08:29;;;;;;;;;30.00;25.50;;;;;;;;5079406;28;11578;-71
2023/01/26 14:10:57;;;;;;;;;21.00;19.75;;;;;;;;5071430;28;11575;-70
2023/01/26 14:13:30;;;;;;;;;24.00;23.25;;;;;;;;5077492;28;11546;-71
2023/01/26 14:15:59;;;;;;;;;15.50;15.50;;;;;;;;5078138;28;11542;-71
2023/01/26 14:18:26;;;;;;;;;14.25;12.00;;;;;;;;5074809;28;11542;-72
2023/01/26 14:20:59;;;;;;;;;20.00;19.75;;;;;;;;5076357;28;11558;-72
2023/01/26 14:23:30;;;;;;;;;19.00;17.00;;;;;;;;5074160;28;11543;-71
2023/01/26 14:25:59;;;;;;;;;17.25;17.25;;;;;;;;5074616;28;11588;-71
2023/01/26 14:28:30;;;;;;;;;17.25;15.75;;;;;;;;5075120;28;11587;-71
2023/01/26 14:31:01;;;;;;;;;17.00;15.25;;;;;;;;5074412;28;11562;-71
2023/01/26 14:33:29;;;;;;;;;20.25;17.50;;;;;;;;5076482;28;11543;-72
2023/01/26 14:35:59;;;;;;;;;18.00;17.00;;;;;;;;5076868;28;11569;-72
2023/01/26 14:38:31;;;;;;;;;15.75;15.75;;;;;;;;5073638;28;11549;-72
2023/01/26 14:41:00;;;;;;;;;15.75;15.75;;;;;;;;5079232;28;11530;-72
2023/01/26 14:43:28;;;;;;;;;23.75;20.25;;;;;;;;5078374;28;11685;-72
2023/01/26 14:46:05;;;;;;;;;17.25;13.00;;;;;;;;5076985;28;11687;-74
2023/01/26 14:48:36;;;;;;;;;17.50;15.50;;;;;;;;5072732;28;11572;-71
2023/01/26 14:51:07;;;;;;;;;15.00;15.00;;;;;;;;5075622;28;11619;-71
2023/01/26 14:53:35;;;;;;;;;17.25;17.25;;;;;;;;5078665;28;11576;-72
2023/01/26 14:56:03;;;;;;;;;24.00;21.75;;;;;;;;5075396;28;11595;-71
2023/01/26 14:58:31;;;;;;;;;24.75;22.00;;;;;;;;5076105;28;11537;-70
2023/01/26 15:01:00;;;;;;;;;21.50;18.75;;;;;;;;5077658;28;11482;-72
2023/01/26 15:03:33;;;;;;;;;24.00;21.00;;;;;;;;5070255;28;11602;-72
2023/01/26 15:06:19;;;;;;;;;25.75;25.25;;;;;;;;5073303;28;11575;-73
2023/01/26 15:08:57;;;;;;;;;30.25;26.50;;;;;;;;5069915;28;11606;-72
2023/01/26 15:14:38;;;;;;;;;26.00;23.50;;;;;;;;5076048;28;11539;-70
2023/01/26 15:17:05;;;;;;;;;33.50;32.00;;;;;;;;5074610;28;11568;-72
2023/01/26 15:19:41;;;;;;;;;42.50;32.50;;;;;;;;5073223;28;11554;-72
2023/01/26 15:22:31;;;;;;;;;34.25;32.50;;;;;;;;5073524;28;11599;-72
2023/01/26 15:25:06;;;;;;;;;34.00;30.50;;;;;;;;5068033;28;11574;-72
2023/01/26 15:27:37;;;;;;;;;42.50;39.75;;;;;;;;5072364;28;11569;-72
2023/01/26 15:30:06;;;;;;;;;44.25;39.75;;;;;;;;5075833;28;11628;-72
2023/01/26 15:32:39;;;;;;;;;39.75;38.00;;;;;;;;5077387;28;11562;-71
2023/01/26 15:35:17;;;;;;;;;31.50;26.00;;;;;;;;5066501;28;11668;-70
2023/01/26 15:37:45;;;;;;;;;30.75;24.75;;;;;;;;5072757;28;11562;-70